sensor_id;sensor_type;location;lat;lon;timestamp;temperature;humidity
17701;DHT22;8969;48.576;12.580;2023-03-04T00:01:41;1.00;99.90
17701;DHT22;8969;48.576;12.580;2023-03-04T00:04:09;0.90;99.90
17701;DHT22;8969;48.576;12.580;2023-03-04T00:06:37;0.90;99.90
17701;DHT22;8969;48.576;12.580;2023-03-04T00:09:05;0.90;99.90
17701;DHT22;8969;48.576;12.580;2023-03-04T00:11:33;0.90;99.90
17701;DHT22;8969;48.576;12.580;2023-03-04T00:14:01;0.80;99.90
17701;DHT22;8969;48.576;12.580;2023-03-04T00:16:31;0.90;99.90
17701;DHT22;8969;48.576;12.580;2023-03-04T00:19:00;0.80;99.90
17701;DHT22;8969;48.576;12.580;2023-03-04T00:21:28;0.80;99.90
17701;DHT22;8969;48.576;12.580;2023-03-04T00:23:57;0.80;99.90
17701;DHT22;8969;48.576;12.580;2023-03-04T00:26:25;0.80;99.90
17701;DHT22;8969;48.576;12.580;2023-03-04T00:28:54;0.80;99.90
17701;DHT22;8969;48.576;12.580;2023-03-04T00:31:22;0.80;99.90
17701;DHT22;8969;48.576;12.580;2023-03-04T00:33:52;0.80;99.90
17701;DHT22;8969;48.576;12.580;2023-03-04T00:36:20;0.80;99.90
17701;DHT22;8969;48.576;12.580;2023-03-04T00:39:08;0.80;99.90
17701;DHT22;8969;48.576;12.580;2023-03-04T00:41:36;0.80;99.90
17701;DHT22;8969;48.576;12.580;2023-03-04T00:44:08;0.80;99.90
17701;DHT22;8969;48.576;12.580;2023-03-04T00:46:36;0.70;99.90
17701;DHT22;8969;48.576;12.580;2023-03-04T00:49:26;0.70;99.90
17701;DHT22;8969;48.576;12.580;2023-03-04T00:51:54;0.70;99.90
17701;DHT22;8969;48.576;12.580;2023-03-04T00:54:22;0.70;99.90
17701;DHT22;8969;48.576;12.580;2023-03-04T00:56:51;0.70;99.90
17701;DHT22;8969;48.576;12.580;2023-03-04T00:59:19;0.70;99.90
17701;DHT22;8969;48.576;12.580;2023-03-04T01:01:48;0.70;99.90
17701;DHT22;8969;48.576;12.580;2023-03-04T01:04:16;0.70;99.90
17701;DHT22;8969;48.576;12.580;2023-03-04T01:06:46;0.60;99.90
17701;DHT22;8969;48.576;12.580;2023-03-04T01:09:14;0.60;99.90
17701;DHT22;8969;48.576;12.580;2023-03-04T01:11:42;0.60;99.90
17701;DHT22;8969;48.576;12.580;2023-03-04T01:14:10;0.60;99.90
17701;DHT22;8969;48.576;12.580;2023-03-04T01:16:38;0.60;99.90
17701;DHT22;8969;48.576;12.580;2023-03-04T01:19:06;0.60;99.90
17701;DHT22;8969;48.576;12.580;2023-03-04T01:21:35;0.60;99.90
17701;DHT22;8969;48.576;12.580;2023-03-04T01:24:05;0.60;99.90
17701;DHT22;8969;48.576;12.580;2023-03-04T01:26:34;0.50;99.90
17701;DHT22;8969;48.576;12.580;2023-03-04T01:29:02;0.50;99.90
17701;DHT22;8969;48.576;12.580;2023-03-04T01:31:32;0.50;99.90
17701;DHT22;8969;48.576;12.580;2023-03-04T01:34:00;0.50;99.90
17701;DHT22;8969;48.576;12.580;2023-03-04T01:36:29;0.50;99.90
17701;DHT22;8969;48.576;12.580;2023-03-04T01:38:56;0.50;99.90
17701;DHT22;8969;48.576;12.580;2023-03-04T01:41:27;0.50;99.90
17701;DHT22;8969;48.576;12.580;2023-03-04T01:43:56;0.50;99.90
17701;DHT22;8969;48.576;12.580;2023-03-04T01:46:29;0.50;99.90
17701;DHT22;8969;48.576;12.580;2023-03-04T01:48:58;0.40;99.90
17701;DHT22;8969;48.576;12.580;2023-03-04T01:51:26;0.40;99.90
17701;DHT22;8969;48.576;12.580;2023-03-04T01:53:55;0.40;99.90
17701;DHT22;8969;48.576;12.580;2023-03-04T01:56:27;0.40;99.90
17701;DHT22;8969;48.576;12.580;2023-03-04T01:59:13;0.40;99.90
17701;DHT22;8969;48.576;12.580;2023-03-04T02:01:43;0.40;99.90
17701;DHT22;8969;48.576;12.580;2023-03-04T02:04:12;0.40;99.90
17701;DHT22;8969;48.576;12.580;2023-03-04T02:06:41;0.40;99.90
17701;DHT22;8969;48.576;12.580;2023-03-04T02:09:09;0.30;99.90
17701;DHT22;8969;48.576;12.580;2023-03-04T02:11:40;0.40;99.90
17701;DHT22;8969;48.576;12.580;2023-03-04T02:14:08;0.40;99.90
17701;DHT22;8969;48.576;12.580;2023-03-04T02:16:37;0.40;99.90
17701;DHT22;8969;48.576;12.580;2023-03-04T02:19:06;0.30;99.90
17701;DHT22;8969;48.576;12.580;2023-03-04T02:21:39;0.30;99.90
17701;DHT22;8969;48.576;12.580;2023-03-04T02:24:13;0.40;99.90
17701;DHT22;8969;48.576;12.580;2023-03-04T02:26:44;0.40;99.90
17701;DHT22;8969;48.576;12.580;2023-03-04T02:29:37;0.30;99.90
17701;DHT22;8969;48.576;12.580;2023-03-04T02:32:05;0.30;99.90
17701;DHT22;8969;48.576;12.580;2023-03-04T02:34:34;0.30;99.90
17701;DHT22;8969;48.576;12.580;2023-03-04T02:37:03;0.30;99.90
17701;DHT22;8969;48.576;12.580;2023-03-04T02:39:52;0.30;99.90
17701;DHT22;8969;48.576;12.580;2023-03-04T02:42:23;0.20;99.90
17701;DHT22;8969;48.576;12.580;2023-03-04T02:44:59;0.20;99.90
17701;DHT22;8969;48.576;12.580;2023-03-04T02:47:28;0.20;99.90
17701;DHT22;8969;48.576;12.580;2023-03-04T02:49:56;0.20;99.90
17701;DHT22;8969;48.576;12.580;2023-03-04T02:52:25;0.20;99.90
17701;DHT22;8969;48.576;12.580;2023-03-04T02:54:53;0.10;99.90
17701;DHT22;8969;48.576;12.580;2023-03-04T02:57:21;0.10;99.90
17701;DHT22;8969;48.576;12.580;2023-03-04T02:59:54;0.10;99.90
17701;DHT22;8969;48.576;12.580;2023-03-04T03:02:26;0.10;99.90
17701;DHT22;8969;48.576;12.580;2023-03-04T03:04:55;0.00;99.90
17701;DHT22;8969;48.576;12.580;2023-03-04T03:07:25;0.00;99.90
17701;DHT22;8969;48.576;12.580;2023-03-04T03:09:54;0.00;99.90
17701;DHT22;8969;48.576;12.580;2023-03-04T03:12:22;0.00;99.90
17701;DHT22;8969;48.576;12.580;2023-03-04T03:14:50;-0.10;99.90
17701;DHT22;8969;48.576;12.580;2023-03-04T03:17:21;-0.10;99.90
17701;DHT22;8969;48.576;12.580;2023-03-04T03:19:49;-0.10;99.90
17701;DHT22;8969;48.576;12.580;2023-03-04T03:22:17;-0.10;99.90
17701;DHT22;8969;48.576;12.580;2023-03-04T03:24:46;-0.10;99.90
17701;DHT22;8969;48.576;12.580;2023-03-04T03:27:14;-0.10;99.90
17701;DHT22;8969;48.576;12.580;2023-03-04T03:29:42;-0.10;99.90
17701;DHT22;8969;48.576;12.580;2023-03-04T03:32:10;-0.10;99.90
17701;DHT22;8969;48.576;12.580;2023-03-04T03:34:39;-0.20;99.90
17701;DHT22;8969;48.576;12.580;2023-03-04T03:37:11;-0.10;99.90
17701;DHT22;8969;48.576;12.580;2023-03-04T03:39:39;-0.10;99.90
17701;DHT22;8969;48.576;12.580;2023-03-04T03:42:07;-0.20;99.90
17701;DHT22;8969;48.576;12.580;2023-03-04T03:44:35;-0.20;99.90
17701;DHT22;8969;48.576;12.580;2023-03-04T03:47:03;-0.10;99.90
17701;DHT22;8969;48.576;12.580;2023-03-04T03:49:32;-0.20;99.90
17701;DHT22;8969;48.576;12.580;2023-03-04T03:52:01;-0.20;99.90
17701;DHT22;8969;48.576;12.580;2023-03-04T03:54:50;-0.20;99.90
17701;DHT22;8969;48.576;12.580;2023-03-04T03:57:19;-0.30;99.90
17701;DHT22;8969;48.576;12.580;2023-03-04T03:59:47;-0.30;99.90
17701;DHT22;8969;48.576;12.580;2023-03-04T04:02:35;-0.30;99.90
17701;DHT22;8969;48.576;12.580;2023-03-04T04:05:04;-0.30;99.90
17701;DHT22;8969;48.576;12.580;2023-03-04T04:07:34;-0.30;99.90
17701;DHT22;8969;48.576;12.580;2023-03-04T04:10:02;-0.30;99.90
17701;DHT22;8969;48.576;12.580;2023-03-04T04:12:31;-0.40;99.90
17701;DHT22;8969;48.576;12.580;2023-03-04T04:14:59;-0.30;99.90
17701;DHT22;8969;48.576;12.580;2023-03-04T04:17:27;-0.40;99.90
17701;DHT22;8969;48.576;12.580;2023-03-04T04:19:55;-0.40;99.90
17701;DHT22;8969;48.576;12.580;2023-03-04T04:22:23;-0.40;99.90
17701;DHT22;8969;48.576;12.580;2023-03-04T04:24:53;-0.50;99.90
17701;DHT22;8969;48.576;12.580;2023-03-04T04:27:21;-0.50;99.90
17701;DHT22;8969;48.576;12.580;2023-03-04T04:29:49;-0.50;99.90
17701;DHT22;8969;48.576;12.580;2023-03-04T04:32:17;-0.50;99.90
17701;DHT22;8969;48.576;12.580;2023-03-04T04:34:45;-0.50;99.90
17701;DHT22;8969;48.576;12.580;2023-03-04T04:37:13;-0.60;99.90
17701;DHT22;8969;48.576;12.580;2023-03-04T04:39:41;-0.50;99.90
17701;DHT22;8969;48.576;12.580;2023-03-04T04:42:11;-0.50;99.90
17701;DHT22;8969;48.576;12.580;2023-03-04T04:44:39;-0.50;99.90
17701;DHT22;8969;48.576;12.580;2023-03-04T04:47:08;-0.50;99.90
17701;DHT22;8969;48.576;12.580;2023-03-04T04:49:36;-0.50;99.90
17701;DHT22;8969;48.576;12.580;2023-03-04T04:52:05;-0.60;99.90
17701;DHT22;8969;48.576;12.580;2023-03-04T04:54:33;-0.60;99.90
17701;DHT22;8969;48.576;12.580;2023-03-04T04:57:01;-0.60;99.90
17701;DHT22;8969;48.576;12.580;2023-03-04T04:59:31;-0.60;99.90
17701;DHT22;8969;48.576;12.580;2023-03-04T05:02:00;-0.60;99.90
17701;DHT22;8969;48.576;12.580;2023-03-04T05:04:28;-0.60;99.90
17701;DHT22;8969;48.576;12.580;2023-03-04T05:06:56;-0.60;99.90
17701;DHT22;8969;48.576;12.580;2023-03-04T05:09:24;-0.60;99.90
17701;DHT22;8969;48.576;12.580;2023-03-04T05:11:52;-0.60;99.90
17701;DHT22;8969;48.576;12.580;2023-03-04T05:14:20;-0.60;99.90
17701;DHT22;8969;48.576;12.580;2023-03-04T05:16:52;-0.60;99.90
17701;DHT22;8969;48.576;12.580;2023-03-04T05:19:20;-0.60;99.90
17701;DHT22;8969;48.576;12.580;2023-03-04T05:21:51;-0.60;99.90
17701;DHT22;8969;48.576;12.580;2023-03-04T05:24:20;-0.70;99.90
17701;DHT22;8969;48.576;12.580;2023-03-04T05:26:48;-0.60;99.90
17701;DHT22;8969;48.576;12.580;2023-03-04T05:29:17;-0.60;99.90
17701;DHT22;8969;48.576;12.580;2023-03-04T05:31:44;-0.60;99.90
17701;DHT22;8969;48.576;12.580;2023-03-04T05:34:14;-0.60;99.90
17701;DHT22;8969;48.576;12.580;2023-03-04T05:36:43;-0.70;99.90
17701;DHT22;8969;48.576;12.580;2023-03-04T05:39:11;-0.70;99.90
17701;DHT22;8969;48.576;12.580;2023-03-04T05:41:39;-0.70;99.90
17701;DHT22;8969;48.576;12.580;2023-03-04T05:44:07;-0.70;99.90
17701;DHT22;8969;48.576;12.580;2023-03-04T05:46:35;-0.60;99.90
17701;DHT22;8969;48.576;12.580;2023-03-04T05:49:04;-0.60;99.90
17701;DHT22;8969;48.576;12.580;2023-03-04T05:51:34;-0.60;99.90
17701;DHT22;8969;48.576;12.580;2023-03-04T05:54:02;-0.60;99.90
17701;DHT22;8969;48.576;12.580;2023-03-04T05:56:31;-0.60;99.90
17701;DHT22;8969;48.576;12.580;2023-03-04T05:59:00;-0.60;99.90
17701;DHT22;8969;48.576;12.580;2023-03-04T06:01:28;-0.70;99.90
17701;DHT22;8969;48.576;12.580;2023-03-04T06:03:57;-0.70;99.90
17701;DHT22;8969;48.576;12.580;2023-03-04T06:06:25;-0.70;99.90
17701;DHT22;8969;48.576;12.580;2023-03-04T06:08:56;-0.70;99.90
17701;DHT22;8969;48.576;12.580;2023-03-04T06:11:44;-0.70;99.90
17701;DHT22;8969;48.576;12.580;2023-03-04T06:14:14;-0.60;99.90
17701;DHT22;8969;48.576;12.580;2023-03-04T06:16:42;-0.60;99.90
17701;DHT22;8969;48.576;12.580;2023-03-04T06:19:10;-0.60;99.90
17701;DHT22;8969;48.576;12.580;2023-03-04T06:21:38;-0.60;99.90
17701;DHT22;8969;48.576;12.580;2023-03-04T06:24:08;-0.50;99.90
17701;DHT22;8969;48.576;12.580;2023-03-04T06:26:36;-0.50;99.90
17701;DHT22;8969;48.576;12.580;2023-03-04T06:29:04;-0.40;99.90
17701;DHT22;8969;48.576;12.580;2023-03-04T06:31:32;-0.40;99.90
17701;DHT22;8969;48.576;12.580;2023-03-04T06:34:00;-0.30;99.90
17701;DHT22;8969;48.576;12.580;2023-03-04T06:36:28;-0.30;99.90
17701;DHT22;8969;48.576;12.580;2023-03-04T06:38:57;-0.20;99.90
17701;DHT22;8969;48.576;12.580;2023-03-04T06:41:27;-0.20;99.90
17701;DHT22;8969;48.576;12.580;2023-03-04T06:43:56;-0.10;99.90
17701;DHT22;8969;48.576;12.580;2023-03-04T06:46:24;-0.10;99.90
17701;DHT22;8969;48.576;12.580;2023-03-04T06:48:56;0.00;99.90
17701;DHT22;8969;48.576;12.580;2023-03-04T06:51:25;0.00;99.90
17701;DHT22;8969;48.576;12.580;2023-03-04T06:53:53;0.10;99.90
17701;DHT22;8969;48.576;12.580;2023-03-04T06:56:21;0.20;99.90
17701;DHT22;8969;48.576;12.580;2023-03-04T06:58:51;0.20;99.90
17701;DHT22;8969;48.576;12.580;2023-03-04T07:01:21;0.30;99.90
17701;DHT22;8969;48.576;12.580;2023-03-04T07:03:50;0.40;99.90
17701;DHT22;8969;48.576;12.580;2023-03-04T07:06:22;0.50;99.90
17701;DHT22;8969;48.576;12.580;2023-03-04T07:08:50;0.50;99.90
17701;DHT22;8969;48.576;12.580;2023-03-04T07:11:19;0.60;99.90
17701;DHT22;8969;48.576;12.580;2023-03-04T07:13:48;0.70;99.90
17701;DHT22;8969;48.576;12.580;2023-03-04T07:16:19;0.70;99.90
17701;DHT22;8969;48.576;12.580;2023-03-04T07:18:48;0.80;99.90
17701;DHT22;8969;48.576;12.580;2023-03-04T07:21:17;0.90;99.90
17701;DHT22;8969;48.576;12.580;2023-03-04T07:23:46;1.00;99.90
17701;DHT22;8969;48.576;12.580;2023-03-04T07:26:15;1.00;99.90
17701;DHT22;8969;48.576;12.580;2023-03-04T07:28:43;1.10;99.90
17701;DHT22;8969;48.576;12.580;2023-03-04T07:31:18;1.20;99.90
17701;DHT22;8969;48.576;12.580;2023-03-04T07:33:49;1.20;99.90
17701;DHT22;8969;48.576;12.580;2023-03-04T07:36:18;1.40;99.90
17701;DHT22;8969;48.576;12.580;2023-03-04T07:38:48;1.40;99.90
17701;DHT22;8969;48.576;12.580;2023-03-04T07:41:17;1.50;99.90
17701;DHT22;8969;48.576;12.580;2023-03-04T07:43:46;1.70;99.90
17701;DHT22;8969;48.576;12.580;2023-03-04T07:46:15;1.80;99.90
17701;DHT22;8969;48.576;12.580;2023-03-04T07:48:43;1.90;99.90
17701;DHT22;8969;48.576;12.580;2023-03-04T07:51:16;2.10;99.90
17701;DHT22;8969;48.576;12.580;2023-03-04T07:53:46;2.10;99.90
17701;DHT22;8969;48.576;12.580;2023-03-04T07:56:16;2.30;99.90
17701;DHT22;8969;48.576;12.580;2023-03-04T07:58:46;2.40;99.90
17701;DHT22;8969;48.576;12.580;2023-03-04T08:01:36;2.50;99.90
17701;DHT22;8969;48.576;12.580;2023-03-04T08:04:27;2.60;99.90
17701;DHT22;8969;48.576;12.580;2023-03-04T08:06:56;2.70;99.90
17701;DHT22;8969;48.576;12.580;2023-03-04T08:09:25;2.80;99.90
17701;DHT22;8969;48.576;12.580;2023-03-04T08:11:53;2.90;99.90
17701;DHT22;8969;48.576;12.580;2023-03-04T08:14:41;3.00;99.90
17701;DHT22;8969;48.576;12.580;2023-03-04T08:17:10;3.10;99.90
17701;DHT22;8969;48.576;12.580;2023-03-04T08:19:40;3.20;99.90
17701;DHT22;8969;48.576;12.580;2023-03-04T08:22:13;3.20;99.90
17701;DHT22;8969;48.576;12.580;2023-03-04T08:24:41;3.20;99.90
17701;DHT22;8969;48.576;12.580;2023-03-04T08:27:09;3.20;99.90
17701;DHT22;8969;48.576;12.580;2023-03-04T08:29:37;3.40;99.90
17701;DHT22;8969;48.576;12.580;2023-03-04T08:32:05;3.50;99.90
17701;DHT22;8969;48.576;12.580;2023-03-04T08:34:55;3.50;99.90
17701;DHT22;8969;48.576;12.580;2023-03-04T08:37:25;3.70;99.90
17701;DHT22;8969;48.576;12.580;2023-03-04T08:39:53;3.60;99.90
17701;DHT22;8969;48.576;12.580;2023-03-04T08:42:25;3.70;99.90
17701;DHT22;8969;48.576;12.580;2023-03-04T08:44:54;3.70;99.90
17701;DHT22;8969;48.576;12.580;2023-03-04T08:47:23;3.70;99.90
17701;DHT22;8969;48.576;12.580;2023-03-04T08:49:51;3.60;99.90
17701;DHT22;8969;48.576;12.580;2023-03-04T08:52:19;3.60;99.90
17701;DHT22;8969;48.576;12.580;2023-03-04T08:54:49;3.70;99.90
17701;DHT22;8969;48.576;12.580;2023-03-04T08:57:17;3.80;99.90
17701;DHT22;8969;48.576;12.580;2023-03-04T08:59:45;3.80;99.90
17701;DHT22;8969;48.576;12.580;2023-03-04T09:02:13;3.90;99.90
17701;DHT22;8969;48.576;12.580;2023-03-04T09:04:41;3.80;99.90
17701;DHT22;8969;48.576;12.580;2023-03-04T09:07:09;3.90;99.90
17701;DHT22;8969;48.576;12.580;2023-03-04T09:09:39;4.10;99.90
17701;DHT22;8969;48.576;12.580;2023-03-04T09:12:11;4.30;99.90
17701;DHT22;8969;48.576;12.580;2023-03-04T09:14:39;4.50;99.90
17701;DHT22;8969;48.576;12.580;2023-03-04T09:17:07;4.50;99.90
17701;DHT22;8969;48.576;12.580;2023-03-04T09:19:36;4.40;99.90
17701;DHT22;8969;48.576;12.580;2023-03-04T09:22:05;4.60;99.90
17701;DHT22;8969;48.576;12.580;2023-03-04T09:24:33;4.70;99.90
17701;DHT22;8969;48.576;12.580;2023-03-04T09:27:02;4.80;99.90
17701;DHT22;8969;48.576;12.580;2023-03-04T09:29:31;4.70;99.90
17701;DHT22;8969;48.576;12.580;2023-03-04T09:32:00;4.60;99.90
17701;DHT22;8969;48.576;12.580;2023-03-04T09:34:28;4.60;99.90
17701;DHT22;8969;48.576;12.580;2023-03-04T09:36:56;4.70;99.90
17701;DHT22;8969;48.576;12.580;2023-03-04T09:39:25;4.80;99.90
17701;DHT22;8969;48.576;12.580;2023-03-04T09:41:55;4.90;99.90
17701;DHT22;8969;48.576;12.580;2023-03-04T09:44:28;4.90;99.90
17701;DHT22;8969;48.576;12.580;2023-03-04T09:47:01;4.80;99.90
17701;DHT22;8969;48.576;12.580;2023-03-04T09:49:30;4.90;99.90
17701;DHT22;8969;48.576;12.580;2023-03-04T09:52:05;5.00;99.90
17701;DHT22;8969;48.576;12.580;2023-03-04T09:54:53;4.80;99.90
17701;DHT22;8969;48.576;12.580;2023-03-04T09:57:50;4.90;99.90
17701;DHT22;8969;48.576;12.580;2023-03-04T10:00:21;5.20;99.90
17701;DHT22;8969;48.576;12.580;2023-03-04T10:03:04;5.40;99.90
17701;DHT22;8969;48.576;12.580;2023-03-04T10:05:35;5.40;99.90
17701;DHT22;8969;48.576;12.580;2023-03-04T10:08:17;5.30;99.90
17701;DHT22;8969;48.576;12.580;2023-03-04T10:11:13;5.40;99.90
17701;DHT22;8969;48.576;12.580;2023-03-04T10:13:52;5.40;99.90
17701;DHT22;8969;48.576;12.580;2023-03-04T10:16:24;5.40;99.90
17701;DHT22;8969;48.576;12.580;2023-03-04T10:18:57;5.40;99.90
17701;DHT22;8969;48.576;12.580;2023-03-04T10:21:31;5.40;99.90
17701;DHT22;8969;48.576;12.580;2023-03-04T10:24:06;5.30;99.90
17701;DHT22;8969;48.576;12.580;2023-03-04T10:26:37;5.40;99.90
17701;DHT22;8969;48.576;12.580;2023-03-04T10:29:05;5.30;99.90
17701;DHT22;8969;48.576;12.580;2023-03-04T10:31:36;5.40;99.90
17701;DHT22;8969;48.576;12.580;2023-03-04T10:34:10;5.50;99.90
17701;DHT22;8969;48.576;12.580;2023-03-04T10:36:49;5.40;99.90
17701;DHT22;8969;48.576;12.580;2023-03-04T10:39:21;5.50;99.90
17701;DHT22;8969;48.576;12.580;2023-03-04T10:42:23;5.40;99.90
17701;DHT22;8969;48.576;12.580;2023-03-04T10:44:55;5.40;99.90
17701;DHT22;8969;48.576;12.580;2023-03-04T10:47:23;5.50;99.90
17701;DHT22;8969;48.576;12.580;2023-03-04T10:49:55;5.50;99.90
17701;DHT22;8969;48.576;12.580;2023-03-04T10:52:29;5.50;99.90
17701;DHT22;8969;48.576;12.580;2023-03-04T10:55:01;5.60;99.90
17701;DHT22;8969;48.576;12.580;2023-03-04T10:57:34;5.60;99.90
17701;DHT22;8969;48.576;12.580;2023-03-04T11:00:26;5.60;99.90
17701;DHT22;8969;48.576;12.580;2023-03-04T11:06:07;5.60;99.90
17701;DHT22;8969;48.576;12.580;2023-03-04T11:08:58;5.70;99.90
17701;DHT22;8969;48.576;12.580;2023-03-04T11:11:29;5.80;99.90
17701;DHT22;8969;48.576;12.580;2023-03-04T11:14:03;5.70;99.90
17701;DHT22;8969;48.576;12.580;2023-03-04T11:16:36;5.70;99.90
17701;DHT22;8969;48.576;12.580;2023-03-04T11:19:08;5.90;99.90
17701;DHT22;8969;48.576;12.580;2023-03-04T11:21:41;6.10;99.90
17701;DHT22;8969;48.576;12.580;2023-03-04T11:24:12;6.00;99.90
17701;DHT22;8969;48.576;12.580;2023-03-04T11:26:58;5.90;99.90
17701;DHT22;8969;48.576;12.580;2023-03-04T11:29:32;5.90;99.90
17701;DHT22;8969;48.576;12.580;2023-03-04T11:32:07;5.50;99.90
17701;DHT22;8969;48.576;12.580;2023-03-04T11:34:41;5.70;99.90
17701;DHT22;8969;48.576;12.580;2023-03-04T11:37:17;5.60;99.90
17701;DHT22;8969;48.576;12.580;2023-03-04T11:39:49;5.80;99.90
17701;DHT22;8969;48.576;12.580;2023-03-04T11:42:27;5.90;99.90
17701;DHT22;8969;48.576;12.580;2023-03-04T11:44:56;5.90;99.90
17701;DHT22;8969;48.576;12.580;2023-03-04T11:47:35;5.40;99.90
17701;DHT22;8969;48.576;12.580;2023-03-04T11:50:22;5.50;99.90
17701;DHT22;8969;48.576;12.580;2023-03-04T11:55:58;5.40;99.90
17701;DHT22;8969;48.576;12.580;2023-03-04T11:58:48;5.60;99.90
17701;DHT22;8969;48.576;12.580;2023-03-04T12:01:25;5.20;99.90
17701;DHT22;8969;48.576;12.580;2023-03-04T12:04:19;4.90;99.90
17701;DHT22;8969;48.576;12.580;2023-03-04T12:07:02;5.20;99.90
17701;DHT22;8969;48.576;12.580;2023-03-04T12:09:55;4.90;99.90
17701;DHT22;8969;48.576;12.580;2023-03-04T12:12:34;5.10;99.90
17701;DHT22;8969;48.576;12.580;2023-03-04T12:15:16;5.20;99.90
17701;DHT22;8969;48.576;12.580;2023-03-04T12:18:04;4.90;99.90
17701;DHT22;8969;48.576;12.580;2023-03-04T12:20:56;4.90;99.90
17701;DHT22;8969;48.576;12.580;2023-03-04T12:24:03;5.00;99.90
17701;DHT22;8969;48.576;12.580;2023-03-04T12:26:43;5.20;99.90
17701;DHT22;8969;48.576;12.580;2023-03-04T12:29:21;5.40;99.90
17701;DHT22;8969;48.576;12.580;2023-03-04T12:31:58;5.20;99.90
17701;DHT22;8969;48.576;12.580;2023-03-04T12:35:18;5.10;99.90
17701;DHT22;8969;48.576;12.580;2023-03-04T12:38:01;4.70;99.90
17701;DHT22;8969;48.576;12.580;2023-03-04T12:40:57;4.50;99.90
17701;DHT22;8969;48.576;12.580;2023-03-04T12:44:00;4.40;99.90
17701;DHT22;8969;48.576;12.580;2023-03-04T12:46:38;4.40;99.90
17701;DHT22;8969;48.576;12.580;2023-03-04T12:49:29;4.70;99.90
17701;DHT22;8969;48.576;12.580;2023-03-04T12:52:07;4.70;99.90
17701;DHT22;8969;48.576;12.580;2023-03-04T12:54:39;4.60;99.90
17701;DHT22;8969;48.576;12.580;2023-03-04T12:57:11;4.20;99.90
17701;DHT22;8969;48.576;12.580;2023-03-04T13:00:13;3.80;99.90
17701;DHT22;8969;48.576;12.580;2023-03-04T13:02:50;4.00;99.90
17701;DHT22;8969;48.576;12.580;2023-03-04T13:05:34;4.30;99.90
17701;DHT22;8969;48.576;12.580;2023-03-04T13:08:13;4.10;99.90
17701;DHT22;8969;48.576;12.580;2023-03-04T13:10:43;4.30;99.90
17701;DHT22;8969;48.576;12.580;2023-03-04T13:13:34;4.20;99.90
17701;DHT22;8969;48.576;12.580;2023-03-04T13:16:05;4.00;99.90
17701;DHT22;8969;48.576;12.580;2023-03-04T13:18:35;3.90;99.90
17701;DHT22;8969;48.576;12.580;2023-03-04T13:21:18;3.80;99.90
17701;DHT22;8969;48.576;12.580;2023-03-04T13:23:48;3.70;99.90
17701;DHT22;8969;48.576;12.580;2023-03-04T13:26:20;3.70;99.90
17701;DHT22;8969;48.576;12.580;2023-03-04T13:28:55;4.00;99.90
17701;DHT22;8969;48.576;12.580;2023-03-04T13:31:58;3.90;99.90
17701;DHT22;8969;48.576;12.580;2023-03-04T13:34:48;3.80;99.90
17701;DHT22;8969;48.576;12.580;2023-03-04T13:37:32;3.70;99.90
17701;DHT22;8969;48.576;12.580;2023-03-04T13:40:32;3.70;99.90
17701;DHT22;8969;48.576;12.580;2023-03-04T13:43:24;4.10;99.90
17701;DHT22;8969;48.576;12.580;2023-03-04T13:45:53;3.80;99.90
17701;DHT22;8969;48.576;12.580;2023-03-04T13:48:32;3.70;99.90
17701;DHT22;8969;48.576;12.580;2023-03-04T13:51:24;3.60;99.90
17701;DHT22;8969;48.576;12.580;2023-03-04T13:54:06;3.50;99.90
17701;DHT22;8969;48.576;12.580;2023-03-04T13:56:36;3.60;99.90
17701;DHT22;8969;48.576;12.580;2023-03-04T13:59:28;3.80;99.90
17701;DHT22;8969;48.576;12.580;2023-03-04T14:01:59;3.70;99.90
17701;DHT22;8969;48.576;12.580;2023-03-04T14:04:34;3.80;99.90
17701;DHT22;8969;48.576;12.580;2023-03-04T14:07:24;3.50;99.90
17701;DHT22;8969;48.576;12.580;2023-03-04T14:10:21;3.40;99.90
17701;DHT22;8969;48.576;12.580;2023-03-04T14:12:51;3.20;99.90
17701;DHT22;8969;48.576;12.580;2023-03-04T14:15:23;3.20;99.90
17701;DHT22;8969;48.576;12.580;2023-03-04T14:17:55;3.20;99.90
17701;DHT22;8969;48.576;12.580;2023-03-04T14:20:27;3.20;99.90
17701;DHT22;8969;48.576;12.580;2023-03-04T14:22:57;3.40;99.90
17701;DHT22;8969;48.576;12.580;2023-03-04T14:25:27;3.40;99.90
17701;DHT22;8969;48.576;12.580;2023-03-04T14:28:03;3.40;99.90
17701;DHT22;8969;48.576;12.580;2023-03-04T14:30:31;3.30;99.90
17701;DHT22;8969;48.576;12.580;2023-03-04T14:33:15;3.30;99.90
17701;DHT22;8969;48.576;12.580;2023-03-04T14:35:47;3.40;99.90
17701;DHT22;8969;48.576;12.580;2023-03-04T14:38:22;3.20;99.90
17701;DHT22;8969;48.576;12.580;2023-03-04T14:40:52;3.20;99.90
17701;DHT22;8969;48.576;12.580;2023-03-04T14:43:23;3.50;99.90
17701;DHT22;8969;48.576;12.580;2023-03-04T14:45:54;3.40;99.90
17701;DHT22;8969;48.576;12.580;2023-03-04T14:48:26;3.20;99.90
17701;DHT22;8969;48.576;12.580;2023-03-04T14:50:58;3.20;99.90
17701;DHT22;8969;48.576;12.580;2023-03-04T14:53:53;3.30;99.90
17701;DHT22;8969;48.576;12.580;2023-03-04T14:56:26;3.20;99.90
17701;DHT22;8969;48.576;12.580;2023-03-04T14:58:56;3.20;99.90
17701;DHT22;8969;48.576;12.580;2023-03-04T15:01:30;3.20;99.90
17701;DHT22;8969;48.576;12.580;2023-03-04T15:04:00;3.10;99.90
17701;DHT22;8969;48.576;12.580;2023-03-04T15:06:32;3.10;99.90
17701;DHT22;8969;48.576;12.580;2023-03-04T15:09:03;2.90;99.90
17701;DHT22;8969;48.576;12.580;2023-03-04T15:12:00;2.90;99.90
17701;DHT22;8969;48.576;12.580;2023-03-04T15:14:46;2.90;99.90
17701;DHT22;8969;48.576;12.580;2023-03-04T15:17:28;2.90;99.90
17701;DHT22;8969;48.576;12.580;2023-03-04T15:20:02;2.80;99.90
17701;DHT22;8969;48.576;12.580;2023-03-04T15:22:31;2.80;99.90
17701;DHT22;8969;48.576;12.580;2023-03-04T15:25:20;2.70;99.90
17701;DHT22;8969;48.576;12.580;2023-03-04T15:27:50;2.80;99.90
17701;DHT22;8969;48.576;12.580;2023-03-04T15:30:22;2.80;99.90
17701;DHT22;8969;48.576;12.580;2023-03-04T15:32:52;2.70;99.90
17701;DHT22;8969;48.576;12.580;2023-03-04T15:35:20;2.70;99.90
17701;DHT22;8969;48.576;12.580;2023-03-04T15:37:51;2.60;99.90
17701;DHT22;8969;48.576;12.580;2023-03-04T15:40:26;2.50;99.90
17701;DHT22;8969;48.576;12.580;2023-03-04T15:43:16;2.60;99.90
17701;DHT22;8969;48.576;12.580;2023-03-04T15:45:45;2.60;99.90
17701;DHT22;8969;48.576;12.580;2023-03-04T15:48:15;2.50;99.90
17701;DHT22;8969;48.576;12.580;2023-03-04T15:50:47;2.50;99.90
17701;DHT22;8969;48.576;12.580;2023-03-04T15:53:21;2.50;99.90
17701;DHT22;8969;48.576;12.580;2023-03-04T15:55:52;2.50;99.90
17701;DHT22;8969;48.576;12.580;2023-03-04T15:58:21;2.50;99.90
17701;DHT22;8969;48.576;12.580;2023-03-04T16:00:49;2.50;99.90
17701;DHT22;8969;48.576;12.580;2023-03-04T16:03:19;2.40;99.90
17701;DHT22;8969;48.576;12.580;2023-03-04T16:05:49;2.40;99.90
17701;DHT22;8969;48.576;12.580;2023-03-04T16:08:20;2.30;99.90
17701;DHT22;8969;48.576;12.580;2023-03-04T16:10:51;2.30;99.90
17701;DHT22;8969;48.576;12.580;2023-03-04T16:13:22;2.40;99.90
17701;DHT22;8969;48.576;12.580;2023-03-04T16:15:52;2.30;99.90
17701;DHT22;8969;48.576;12.580;2023-03-04T16:18:20;2.30;99.90
17701;DHT22;8969;48.576;12.580;2023-03-04T16:20:50;2.30;99.90
17701;DHT22;8969;48.576;12.580;2023-03-04T16:23:21;2.40;99.90
17701;DHT22;8969;48.576;12.580;2023-03-04T16:26:13;2.40;99.90